Time;durP1;ratioP1;P1;durP2;ratioP2;P2;SDS_P1;SDS_P2;PMS_P1;PMS_P2;Temp;Humidity;BMP_temperature;BMP_pressure;BME280_temperature;BME280_humidity;BME280_pressure;Samples;Min_cycle;Max_cycle;Signal;HPM_P1;HPM_P2
2021/07/04 00:01:39;;;;;;;5.45;4.05;;;;;;;20.35;100.00;98172.69;1636914;86;21462;-70
2021/07/04 00:04:07;;;;;;;6.55;3.75;;;;;;;20.33;100.00;98170.55;1607875;88;20983;-70
2021/07/04 00:06:35;;;;;;;7.90;3.30;;;;;;;20.29;100.00;98171.69;1636914;86;21010;-70
2021/07/04 00:09:05;;;;;;;4.87;3.15;;;;;;;20.25;100.00;98168.34;1607935;87;21423;-70
2021/07/04 00:11:36;;;;;;;5.10;3.20;;;;;;;20.22;100.00;98163.16;1636917;86;21433;-70
2021/07/04 00:14:03;;;;;;;4.37;3.25;;;;;;;20.19;100.00;98165.17;1607889;88;20967;-70
2021/07/04 00:16:32;;;;;;;5.83;4.30;;;;;;;20.14;100.00;98152.06;1636954;86;21017;-70
2021/07/04 00:19:01;;;;;;;6.95;4.97;;;;;;;20.09;100.00;98148.33;1637178;86;21440;-70
2021/07/04 00:21:29;;;;;;;9.00;4.20;;;;;;;20.05;100.00;98150.80;1596896;89;21485;-70
2021/07/04 00:23:57;;;;;;;8.80;4.45;;;;;;;20.03;100.00;98145.16;1637135;86;21489;-67
2021/07/04 00:26:26;;;;;;;11.33;4.40;;;;;;;20.03;100.00;98142.48;1607659;88;20967;-71
2021/07/04 00:28:55;;;;;;;6.60;4.12;;;;;;;20.03;100.00;98140.66;1640027;86;20981;-71
2021/07/04 00:31:23;;;;;;;14.35;6.37;;;;;;;20.01;100.00;98133.69;1644210;86;20986;-70
2021/07/04 00:33:52;;;;;;;6.37;4.87;;;;;;;19.97;100.00;98136.16;1644405;85;21128;-70
2021/07/04 00:36:21;;;;;;;10.32;4.47;;;;;;;19.92;100.00;98135.09;1644086;86;20985;-70
2021/07/04 00:38:50;;;;;;;6.95;5.20;;;;;;;19.89;100.00;98135.76;1644214;86;21127;-71
2021/07/04 00:41:20;;;;;;;12.58;4.67;;;;;;;19.84;100.00;98133.33;1644191;86;21025;-70
2021/07/04 00:43:50;;;;;;;12.37;4.53;;;;;;;19.79;100.00;98131.41;1644253;86;21179;-70
2021/07/04 00:46:19;;;;;;;6.83;4.22;;;;;;;19.74;100.00;98124.98;1644224;86;21114;-71
2021/07/04 00:48:48;;;;;;;8.05;4.33;;;;;;;19.70;100.00;98125.26;1644119;86;20910;-70
2021/07/04 00:51:17;;;;;;;5.78;4.20;;;;;;;19.62;100.00;98122.17;1644191;86;21500;-70
2021/07/04 00:53:47;;;;;;;6.15;4.22;;;;;;;19.55;100.00;98120.81;1644402;86;21458;-71
2021/07/04 00:56:18;;;;;;;5.77;4.17;;;;;;;19.48;100.00;98110.44;1644413;86;20973;-71
2021/07/04 00:58:49;;;;;;;5.47;3.80;;;;;;;19.46;100.00;98110.14;1644483;85;21097;-70
2021/07/04 01:01:19;;;;;;;7.40;3.85;;;;;;;19.43;100.00;98109.85;1644109;86;21461;-70
2021/07/04 01:03:47;;;;;;;8.08;4.42;;;;;;;19.43;100.00;98108.98;1625623;86;21445;-70
2021/07/04 01:06:18;;;;;;;4.72;3.72;;;;;;;19.41;100.00;98104.20;1644162;86;21440;-70
2021/07/04 01:08:47;;;;;;;3.98;3.30;;;;;;;19.41;100.00;98110.42;1644419;86;20981;-70
2021/07/04 01:11:16;;;;;;;5.80;3.22;;;;;;;19.41;100.00;98111.75;1644179;86;21125;-71
2021/07/04 01:13:45;;;;;;;4.22;3.83;;;;;;;19.45;100.00;98115.11;1644050;85;21497;-70
2021/07/04 01:16:19;;;;;;;3.95;3.08;;;;;;;19.46;100.00;98119.51;1626447;87;21504;-70
2021/07/04 01:18:50;;;;;;;7.25;3.75;;;;;;;19.48;100.00;98129.16;1644018;86;21444;-71
2021/07/04 01:21:21;;;;;;;5.85;3.33;;;;;;;19.47;100.00;98124.77;1643826;86;21062;-70
2021/07/04 01:23:50;;;;;;;10.30;3.85;;;;;;;19.47;100.00;98126.58;1644157;86;21135;-71
2021/07/04 01:26:19;;;;;;;10.58;3.72;;;;;;;19.43;100.00;98123.22;1644114;86;21009;-71
2021/07/04 01:28:48;;;;;;;8.15;3.70;;;;;;;19.40;100.00;98131.91;1642568;86;21013;-70
2021/07/04 01:31:20;;;;;;;7.22;3.62;;;;;;;19.38;100.00;98135.11;1607485;87;21410;-70
2021/07/04 01:33:54;;;;;;;11.93;3.98;;;;;;;19.34;100.00;98133.08;1635486;86;21425;-70
2021/07/04 01:36:27;;;;;;;10.95;3.83;;;;;;;19.28;100.00;98129.42;1635645;86;21123;-70
2021/07/04 01:38:58;;;;;;;9.00;3.75;;;;;;;19.24;100.00;98137.71;1607564;87;21576;-70
2021/07/04 01:41:28;;;;;;;8.83;3.63;;;;;;;19.18;100.00;98134.92;1637224;86;21014;-70
2021/07/04 01:43:57;;;;;;;4.92;3.60;;;;;;;19.13;100.00;98131.64;1607620;87;21516;-70
2021/07/04 01:46:27;;;;;;;7.10;3.50;;;;;;;19.09;100.00;98136.30;1625530;86;21590;-70
2021/07/04 01:48:57;;;;;;;8.33;3.42;;;;;;;19.04;100.00;98129.49;1636656;86;21656;-70
2021/07/04 01:51:27;;;;;;;8.83;3.25;;;;;;;18.99;100.00;98132.42;1607565;88;21458;-70
2021/07/04 01:53:57;;;;;;;8.53;3.50;;;;;;;18.94;100.00;98135.83;1637113;86;20953;-70
2021/07/04 01:56:27;;;;;;;4.47;2.98;;;;;;;18.88;100.00;98134.33;1636561;86;20977;-70
2021/07/04 01:58:57;;;;;;;6.67;3.20;;;;;;;18.85;100.00;98142.52;1637084;86;20977;-70
2021/07/04 02:01:27;;;;;;;4.33;2.67;;;;;;;18.81;100.00;98138.77;1606861;88;21196;-70
2021/07/04 02:03:54;;;;;;;14.30;3.12;;;;;;;18.80;100.00;98129.89;1637038;86;20882;-70
2021/07/04 02:06:23;;;;;;;17.25;3.55;;;;;;;18.79;100.00;98142.86;1607613;87;21445;-70
2021/07/04 02:08:52;;;;;;;18.45;4.10;;;;;;;18.76;100.00;98137.69;1637128;86;20957;-70
2021/07/04 02:11:23;;;;;;;12.30;3.50;;;;;;;18.76;100.00;98140.83;1636901;86;21441;-70
2021/07/04 02:13:55;;;;;;;10.90;3.45;;;;;;;18.75;100.00;98137.77;1637061;86;21401;-70
2021/07/04 02:16:26;;;;;;;9.18;3.35;;;;;;;18.73;100.00;98136.99;1605395;88;20915;-70
2021/07/04 02:19:02;;;;;;;5.75;2.83;;;;;;;18.72;100.00;98136.13;1635338;86;21009;-70
2021/07/04 02:21:34;;;;;;;4.17;2.98;;;;;;;18.72;100.00;98142.80;1635849;86;21492;-68
2021/07/04 02:24:23;;;;;;;8.85;3.50;;;;;;;18.72;100.00;98148.16;1635795;86;21465;-68
2021/07/04 02:27:03;;;;;;;11.78;3.55;;;;;;;18.69;100.00;98150.99;1607784;87;21478;-68
2021/07/04 02:29:33;;;;;;;11.63;3.45;;;;;;;18.70;100.00;98155.39;1626758;86;21065;-69
2021/07/04 02:32:04;;;;;;;6.85;3.37;;;;;;;18.71;100.00;98157.11;1607739;88;21426;-70
2021/07/04 02:34:33;;;;;;;3.75;2.70;;;;;;;18.70;100.00;98158.06;1637026;86;21522;-70
2021/07/04 02:37:05;;;;;;;8.93;3.98;;;;;;;18.70;100.00;98155.86;1607862;88;21505;-70
2021/07/04 02:39:39;;;;;;;;;;;;;;;18.71;100.00;98160.25;1638174;86;21930;-70
2021/07/04 02:42:10;;;;;;;5.40;2.80;;;;;;;18.71;100.00;98160.25;1636995;86;20437;-70
2021/07/04 02:44:42;;;;;;;7.05;2.40;;;;;;;18.70;100.00;98163.87;1607698;87;21466;-70
2021/07/04 02:47:13;;;;;;;5.85;2.60;;;;;;;18.71;100.00;98164.27;1637051;86;21425;-70
2021/07/04 02:49:43;;;;;;;4.35;2.42;;;;;;;18.74;100.00;98171.64;1607778;87;20884;-69
2021/07/04 02:52:11;;;;;;;5.72;2.80;;;;;;;18.75;100.00;98168.02;1637040;86;21115;-70
2021/07/04 02:54:40;;;;;;;7.33;2.80;;;;;;;18.76;100.00;98175.09;1637245;86;20925;-69
2021/07/04 02:57:10;;;;;;;5.00;2.33;;;;;;;18.78;100.00;98177.67;1625060;86;20921;-69
2021/07/04 02:59:41;;;;;;;5.85;2.77;;;;;;;18.81;100.00;98186.38;1637224;86;20978;-70
2021/07/04 03:02:11;;;;;;;6.55;2.50;;;;;;;18.85;100.00;98189.28;1607761;88;20984;-69
2021/07/04 03:04:41;;;;;;;4.67;2.62;;;;;;;18.85;100.00;98181.73;1637494;86;22033;-70
2021/07/04 03:07:11;;;;;;;6.95;2.77;;;;;;;18.84;100.00;98178.20;1625346;86;20929;-70
2021/07/04 03:09:42;;;;;;;4.72;2.90;;;;;;;18.86;100.00;98191.48;1608037;87;21467;-69
2021/07/04 03:12:13;;;;;;;7.28;2.67;;;;;;;18.85;100.00;98191.95;1624719;87;21425;-70
2021/07/04 03:14:44;;;;;;;4.65;2.60;;;;;;;18.89;100.00;98193.98;1607970;88;21430;-70
2021/07/04 03:17:14;;;;;;;3.35;2.90;;;;;;;18.94;100.00;98190.61;1625713;87;21485;-70
2021/07/04 03:19:44;;;;;;;3.90;3.15;;;;;;;18.97;100.00;98192.25;1607892;87;20923;-69
2021/07/04 03:22:13;;;;;;;5.87;2.83;;;;;;;18.99;100.00;98197.91;1637041;86;21437;-70
2021/07/04 03:24:44;;;;;;;4.33;2.92;;;;;;;19.02;100.00;98203.08;1625956;87;20976;-70
2021/07/04 03:27:13;;;;;;;4.62;2.72;;;;;;;19.08;100.00;98210.75;1607769;88;21461;-69
2021/07/04 03:29:43;;;;;;;4.58;2.87;;;;;;;19.14;100.00;98206.41;1637154;86;21112;-71
2021/07/04 03:32:13;;;;;;;4.70;3.10;;;;;;;19.20;100.00;98213.22;1624561;87;21011;-71
2021/07/04 03:34:42;;;;;;;4.03;3.10;;;;;;;19.23;100.00;98213.05;1625551;86;21509;-71
2021/07/04 03:37:11;;;;;;;7.58;3.12;;;;;;;19.27;100.00;98217.27;1625801;86;21029;-71
2021/07/04 03:39:39;;;;;;;3.70;3.12;;;;;;;19.32;100.00;98221.89;1607724;88;21516;-71
2021/07/04 03:42:10;;;;;;;4.95;3.20;;;;;;;19.37;100.00;98218.95;1637083;86;21437;-71
2021/07/04 03:44:38;;;;;;;5.90;3.52;;;;;;;19.39;100.00;98223.30;1607614;88;20951;-71
2021/07/04 03:47:08;;;;;;;5.67;3.15;;;;;;;19.44;100.00;98220.37;1637279;86;21448;-71
2021/07/04 03:49:38;;;;;;;4.08;3.20;;;;;;;19.47;100.00;98223.73;1607674;88;21462;-71
2021/07/04 03:52:08;;;;;;;3.50;3.12;;;;;;;19.52;100.00;98220.79;1637084;86;21475;-71
2021/07/04 03:54:37;;;;;;;6.17;3.30;;;;;;;19.58;100.00;98219.14;1607663;87;21794;-71
2021/07/04 03:57:23;;;;;;;3.77;3.27;;;;;;;19.62;100.00;98226.52;1636743;86;20863;-70
2021/07/04 03:59:59;;;;;;;3.83;3.05;;;;;;;19.66;100.00;98222.70;1636132;86;21457;-70
2021/07/04 04:02:28;;;;;;;6.75;3.30;;;;;;;19.71;100.00;98222.83;1637266;86;21453;-70
2021/07/04 04:04:58;;;;;;;4.33;3.30;;;;;;;19.78;100.00;98223.33;1607729;87;21462;-71
2021/07/04 04:07:29;;;;;;;4.17;3.35;;;;;;;19.84;100.00;98210.94;1637025;86;21445;-70
2021/07/04 04:09:59;;;;;;;4.03;3.33;;;;;;;19.87;100.00;98212.13;1607621;88;21449;-70
2021/07/04 04:12:29;;;;;;;4.62;3.40;;;;;;;19.90;100.00;98207.93;1637159;86;21429;-70
2021/07/04 04:15:00;;;;;;;3.87;2.90;;;;;;;19.93;100.00;98207.75;1636882;86;21094;-71
2021/07/04 04:17:30;;;;;;;3.60;3.30;;;;;;;19.98;100.00;98205.66;1608259;87;21459;-65
2021/07/04 04:19:58;;;;;;;6.25;3.02;;;;;;;20.02;100.00;98209.02;1637044;86;23493;-63
2021/07/04 04:22:26;;;;;;;6.78;3.35;;;;;;;20.03;100.00;98198.70;1607907;87;20962;-67
2021/07/04 04:24:54;;;;;;;5.25;3.00;;;;;;;20.07;100.00;98206.93;1636940;86;20974;-67
2021/07/04 04:27:23;;;;;;;7.25;3.00;;;;;;;20.11;100.00;98209.81;1637151;86;21442;-67
2021/07/04 04:29:50;;;;;;;3.67;3.35;;;;;;;20.16;100.00;98206.86;1608141;88;21453;-67
2021/07/04 04:32:20;;;;;;;4.17;3.47;;;;;;;20.21;100.00;98211.46;1641409;86;21489;-67
2021/07/04 04:34:48;;;;;;;6.60;3.80;;;;;;;20.25;100.00;98208.50;1624421;87;21501;-67
2021/07/04 04:37:16;;;;;;;3.50;3.20;;;;;;;20.29;100.00;98210.52;1641425;86;21068;-67
2021/07/04 04:39:44;;;;;;;6.90;3.35;;;;;;;20.32;100.00;98205.84;1641377;86;21199;-67
2021/07/04 04:42:13;;;;;;;4.53;3.33;;;;;;;20.37;100.00;98207.80;1641427;86;21421;-67
2021/07/04 04:44:41;;;;;;;5.00;3.22;;;;;;;20.42;100.00;98206.20;1641307;86;21065;-67
2021/07/04 04:47:10;;;;;;;3.50;3.08;;;;;;;20.46;100.00;98201.52;1641254;86;21414;-66
2021/07/04 04:49:37;;;;;;;4.85;3.45;;;;;;;20.48;100.00;98204.49;1641385;86;20973;-67
2021/07/04 04:52:07;;;;;;;4.72;3.10;;;;;;;20.52;100.00;98207.37;1641304;86;20926;-67
2021/07/04 04:54:35;;;;;;;4.28;3.52;;;;;;;20.54;100.00;98201.44;1641398;86;21469;-67
2021/07/04 04:57:07;;;;;;;4.17;3.20;;;;;;;20.58;100.00;98203.45;1641576;86;21064;-67
2021/07/04 04:59:37;;;;;;;5.72;3.60;;;;;;;20.62;100.00;98207.19;1641266;86;20998;-67
2021/07/04 05:02:05;;;;;;;7.60;3.60;;;;;;;20.66;100.00;98203.84;1641574;86;21529;-67
2021/07/04 05:04:33;;;;;;;3.70;3.40;;;;;;;20.68;100.00;98199.24;1641319;86;20913;-66
2021/07/04 05:07:01;;;;;;;4.42;3.42;;;;;;;20.70;100.00;98208.91;1641675;86;20889;-66
2021/07/04 05:09:28;;;;;;;4.60;3.60;;;;;;;20.75;100.00;98204.13;1641365;86;21053;-67
2021/07/04 05:11:56;;;;;;;5.42;3.67;;;;;;;20.82;100.00;98207.80;1641518;87;21425;-67
2021/07/04 05:14:24;;;;;;;4.00;3.37;;;;;;;20.85;100.00;98207.12;1641338;86;20985;-67
2021/07/04 05:16:52;;;;;;;5.08;3.50;;;;;;;20.90;100.00;98210.86;1641582;86;21467;-67
2021/07/04 05:19:19;;;;;;;3.85;3.45;;;;;;;20.95;100.00;98214.97;1641489;86;21594;-67
2021/07/04 05:21:49;;;;;;;4.92;3.55;;;;;;;21.03;100.00;98212.66;1641570;86;21017;-67
2021/07/04 05:24:16;;;;;;;4.78;3.83;;;;;;;21.12;100.00;98213.90;1641289;86;20933;-67
2021/07/04 05:26:43;;;;;;;6.08;3.52;;;;;;;21.19;100.00;98211.69;1641329;86;20914;-67
2021/07/04 05:29:11;;;;;;;3.55;3.22;;;;;;;21.23;100.00;98212.77;1641620;86;20961;-67
2021/07/04 05:31:38;;;;;;;4.42;3.50;;;;;;;21.30;100.00;98215.95;1637603;86;20921;-67
2021/07/04 05:34:06;;;;;;;4.30;3.60;;;;;;;21.36;100.00;98216.89;1607600;87;21108;-67
2021/07/04 05:36:34;;;;;;;5.83;3.47;;;;;;;21.43;100.00;98215.53;1637054;86;20918;-67
2021/07/04 05:39:03;;;;;;;5.65;3.83;;;;;;;21.49;100.00;98204.88;1607698;88;20883;-67
2021/07/04 05:41:31;;;;;;;4.08;3.27;;;;;;;21.55;100.00;98208.50;1637071;86;20966;-67
2021/07/04 05:43:58;;;;;;;6.30;3.80;;;;;;;21.59;100.00;98201.97;1607713;88;20883;-66
2021/07/04 05:46:25;;;;;;;4.47;3.55;;;;;;;21.64;100.00;98212.78;1637052;86;21085;-67
2021/07/04 05:48:53;;;;;;;3.50;3.20;;;;;;;21.70;100.00;98215.54;1607557;88;20966;-67
2021/07/04 05:51:20;;;;;;;5.80;3.45;;;;;;;21.78;100.00;98214.59;1637052;86;20966;-67
2021/07/04 05:53:47;;;;;;;4.90;3.70;;;;;;;21.86;100.00;98218.10;1607628;88;20987;-67
2021/07/04 05:56:15;;;;;;;4.70;3.70;;;;;;;21.90;100.00;98216.93;1637081;86;20965;-66
2021/07/04 05:58:43;;;;;;;3.60;3.30;;;;;;;21.96;100.00;98210.67;1607578;88;21457;-66
2021/07/04 06:01:11;;;;;;;4.35;3.70;;;;;;;22.05;100.00;98218.63;1636876;86;21477;-66
2021/07/04 06:03:39;;;;;;;4.35;3.58;;;;;;;22.15;100.00;98221.06;1637130;86;20905;-67
2021/07/04 06:06:07;;;;;;;5.67;3.85;;;;;;;22.28;100.00;98217.09;1607571;87;20959;-66
2021/07/04 06:08:34;;;;;;;5.10;3.72;;;;;;;22.39;100.00;98211.84;1637120;86;21485;-67
2021/07/04 06:11:02;;;;;;;3.65;3.35;;;;;;;22.52;100.00;98221.25;1607599;87;21124;-65
2021/07/04 06:13:29;;;;;;;3.85;3.55;;;;;;;22.62;100.00;98219.16;1637155;86;20913;-66
2021/07/04 06:15:57;;;;;;;7.00;3.65;;;;;;;22.75;100.00;98223.23;1607518;88;21006;-66
2021/07/04 06:18:25;;;;;;;4.35;3.58;;;;;;;22.86;100.00;98222.02;1637104;86;20989;-66
2021/07/04 06:20:53;;;;;;;4.10;3.70;;;;;;;22.98;100.00;98225.66;1607621;87;20935;-66
2021/07/04 06:23:20;;;;;;;7.83;3.95;;;;;;;23.07;100.00;98226.34;1637105;86;20995;-66
2021/07/04 06:25:48;;;;;;;5.75;4.33;;;;;;;23.15;100.00;98221.77;1607527;88;20947;-66
2021/07/04 06:28:16;;;;;;;4.47;3.98;;;;;;;23.23;100.00;98222.96;1637130;86;20925;-65
2021/07/04 06:30:43;;;;;;;4.30;3.90;;;;;;;23.34;100.00;98222.67;1613783;86;20975;-66
2021/07/04 06:33:11;;;;;;;4.33;3.92;;;;;;;23.42;100.00;98217.10;1663423;85;20929;-66
2021/07/04 06:35:39;;;;;;;4.08;3.77;;;;;;;23.56;100.00;98210.73;1663370;85;21146;-66
2021/07/04 06:38:08;;;;;;;4.22;3.55;;;;;;;23.68;100.00;98213.03;1663342;84;20913;-67
2021/07/04 06:40:35;;;;;;;5.35;3.87;;;;;;;23.80;100.00;98206.73;1663385;85;21025;-66
2021/07/04 06:43:02;;;;;;;4.78;3.72;;;;;;;23.93;100.00;98199.94;1646389;86;21430;-63
2021/07/04 06:45:30;;;;;;;4.37;3.47;;;;;;;24.04;100.00;98204.88;1621971;86;21537;-63
2021/07/04 06:47:57;;;;;;;4.45;3.80;;;;;;;24.13;100.00;98196.13;1633907;86;21759;-63
2021/07/04 06:50:25;;;;;;;5.50;3.52;;;;;;;24.18;100.00;98195.78;1633755;86;20947;-63
2021/07/04 06:52:53;;;;;;;4.72;3.67;;;;;;;24.25;100.00;98193.47;1633790;86;20967;-63
2021/07/04 06:55:20;;;;;;;5.50;3.50;;;;;;;24.34;100.00;98190.09;1633850;86;20918;-63
2021/07/04 06:57:49;;;;;;;4.03;3.62;;;;;;;24.44;100.00;98198.70;1633732;86;20890;-63
2021/07/04 07:00:17;;;;;;;3.83;3.52;;;;;;;24.54;100.00;98194.80;1633771;86;21482;-63
2021/07/04 07:02:46;;;;;;;3.55;3.25;;;;;;;24.63;100.00;98194.11;1633973;86;21457;-63
2021/07/04 07:05:14;;;;;;;3.70;3.40;;;;;;;24.73;100.00;98181.61;1633842;86;21457;-63
2021/07/04 07:07:42;;;;;;;3.67;3.30;;;;;;;24.79;100.00;98174.38;1634088;86;21513;-64
2021/07/04 07:10:13;;;;;;;3.62;3.33;;;;;;;24.87;100.00;98181.86;1634026;86;21444;-64
2021/07/04 07:12:45;;;;;;;2.97;2.77;;;;;;;24.93;100.00;98182.72;1634380;86;21094;-63
2021/07/04 07:15:14;;;;;;;2.87;2.58;;;;;;;25.04;100.00;98175.15;1633909;86;20955;-63
2021/07/04 07:17:45;;;;;;;2.83;2.62;;;;;;;25.14;100.00;98176.16;1634126;86;20926;-63
2021/07/04 07:20:15;;;;;;;4.53;3.15;;;;;;;25.24;100.00;98181.17;1633955;86;20887;-63
2021/07/04 07:22:42;;;;;;;3.92;2.95;;;;;;;25.34;100.00;98178.09;1634233;86;20930;-63
2021/07/04 07:25:12;;;;;;;6.40;3.12;;;;;;;25.45;100.00;98170.46;1633967;86;21110;-63
2021/07/04 07:27:45;;;;;;;3.58;2.90;;;;;;;25.56;100.00;98168.25;1634171;86;20954;-63
2021/07/04 07:30:18;;;;;;;3.55;2.90;;;;;;;25.64;100.00;98160.38;1633917;86;20962;-63
2021/07/04 07:32:47;;;;;;;3.98;3.00;;;;;;;25.75;100.00;98158.16;1602857;88;20922;-63
2021/07/04 07:35:15;;;;;;;6.87;3.40;;;;;;;25.82;100.00;98159.36;1627984;86;20972;-63
2021/07/04 07:37:43;;;;;;;4.05;3.45;;;;;;;25.88;100.00;98157.00;1627972;86;21108;-64
2021/07/04 07:40:12;;;;;;;3.40;3.10;;;;;;;25.96;100.00;98155.00;1627897;86;20953;-63
2021/07/04 07:42:43;;;;;;;3.55;3.25;;;;;;;26.03;100.00;98160.28;1627043;86;20923;-63
2021/07/04 07:45:13;;;;;;;3.40;3.10;;;;;;;26.10;100.00;98157.42;1627970;86;20883;-63
2021/07/04 07:47:41;;;;;;;3.72;3.40;;;;;;;26.17;100.00;98157.25;1627933;86;20923;-63
2021/07/04 07:50:11;;;;;;;3.95;3.00;;;;;;;26.25;100.00;98161.51;1628019;86;21057;-63
2021/07/04 07:52:41;;;;;;;3.98;3.40;;;;;;;26.35;100.00;98161.11;1627869;86;21544;-63
2021/07/04 07:55:09;;;;;;;3.67;3.22;;;;;;;26.46;100.00;98157.48;1628000;86;21501;-63
2021/07/04 07:57:39;;;;;;;3.72;3.40;;;;;;;26.58;100.00;98161.85;1628092;86;21023;-63
2021/07/04 08:00:09;;;;;;;3.92;3.25;;;;;;;26.69;100.00;98164.97;1627945;86;21027;-63
2021/07/04 08:02:41;;;;;;;3.52;3.22;;;;;;;26.74;100.00;98162.72;1603025;86;21069;-63
2021/07/04 08:05:12;;;;;;;3.55;3.22;;;;;;;26.80;100.00;98168.94;1628008;86;20863;-63
2021/07/04 08:07:40;;;;;;;5.75;3.33;;;;;;;26.89;100.00;98165.92;1628130;86;21018;-63
2021/07/04 08:10:09;;;;;;;4.08;3.10;;;;;;;26.98;100.00;98174.64;1624914;86;20970;-64
2021/07/04 08:12:37;;;;;;;3.62;3.27;;;;;;;27.08;100.00;98170.63;1613727;86;21056;-63
2021/07/04 08:15:07;;;;;;;5.17;2.95;;;;;;;27.19;100.00;98175.94;1602002;88;20926;-62
2021/07/04 08:17:36;;;;;;;4.55;3.25;;;;;;;27.27;100.00;98171.55;1601985;88;20962;-63
2021/07/04 08:20:06;;;;;;;2.83;2.62;;;;;;;27.38;100.00;98172.42;1602062;88;20918;-63
2021/07/04 08:22:34;;;;;;;6.78;2.80;;;;;;;27.48;100.00;98174.69;1602088;88;20923;-61
2021/07/04 08:25:02;;;;;;;3.30;3.00;;;;;;;27.54;100.00;98176.84;1602084;88;21494;-64
2021/07/04 08:27:30;;;;;;;2.90;2.70;;;;;;;27.64;100.00;98183.67;1602106;88;21117;-64
2021/07/04 08:29:58;;;;;;;4.05;2.80;;;;;;;27.75;100.00;98177.63;1619591;86;20947;-63
2021/07/04 08:32:25;;;;;;;5.10;3.05;;;;;;;27.87;100.00;98179.70;1629493;86;20890;-64
2021/07/04 08:34:52;;;;;;;3.00;2.70;;;;;;;27.98;100.00;98170.11;1627022;86;21399;-63
2021/07/04 08:37:20;;;;;;;2.60;2.40;;;;;;;28.05;100.00;98171.25;1623483;86;20970;-63
2021/07/04 08:39:48;;;;;;;3.15;2.72;;;;;;;28.10;100.00;98173.03;1651090;85;21874;-64
2021/07/04 08:42:18;;;;;;;3.55;2.83;;;;;;;28.12;100.00;98168.33;1655064;85;21470;-63
2021/07/04 08:44:51;;;;;;;5.17;2.47;;;;;;;28.14;100.00;98165.47;1624710;86;20943;-63
2021/07/04 08:47:19;;;;;;;2.45;2.17;;;;;;;28.16;100.00;98167.03;1572400;88;21026;-62
2021/07/04 08:49:47;;;;;;;3.67;2.35;;;;;;;28.19;100.00;98165.39;1607718;87;21479;-63
2021/07/04 08:52:16;;;;;;;3.83;2.83;;;;;;;28.28;100.00;98168.27;1610177;87;20971;-64
2021/07/04 08:54:43;;;;;;;3.27;2.55;;;;;;;28.37;100.00;98167.41;1603467;88;21593;-65
2021/07/04 08:57:12;;;;;;;3.10;2.80;;;;;;;28.44;100.00;98167.20;1658486;84;20940;-65
2021/07/04 08:59:43;;;;;;;7.62;2.47;;;;;;;28.52;100.00;98157.84;1651821;84;21496;-69
2021/07/04 09:02:12;;;;;;;2.83;2.45;;;;;;;28.59;100.00;98150.83;1652724;84;20925;-63
2021/07/04 09:04:39;;;;;;;8.18;2.42;;;;;;;28.63;100.00;98156.31;1660373;84;21090;-63
2021/07/04 09:07:07;;;;;;;4.08;2.52;;;;;;;28.65;100.00;98153.45;1665521;84;20948;-64
2021/07/04 09:09:35;;;;;;;9.78;2.42;;;;;;;28.65;100.00;98157.52;1665861;84;20866;-63
2021/07/04 09:12:11;;;;;;;2.90;2.02;;;;;;;28.59;100.00;98145.40;1603778;86;20945;-63
2021/07/04 09:14:42;;;;;;;3.35;2.40;;;;;;;28.54;100.00;98144.98;1632948;86;21474;-63
2021/07/04 09:17:13;;;;;;;2.50;2.20;;;;;;;28.52;100.00;98142.92;1619093;86;39388;-63
2021/07/04 09:19:57;;;;;;;5.83;2.42;;;;;;;28.58;100.00;98155.04;1637346;86;20910;-63
2021/07/04 09:22:36;;;;;;;3.08;2.02;;;;;;;28.65;100.00;98148.02;1639659;84;20953;-64
2021/07/04 09:25:22;;;;;;;7.62;2.50;;;;;;;28.73;100.00;98140.86;1603584;88;21458;-64
2021/07/04 09:28:15;;;;;;;2.50;2.30;;;;;;;28.81;100.00;98138.25;1572564;89;20995;-63
2021/07/04 09:30:52;;;;;;;4.70;2.08;;;;;;;28.92;100.00;98139.98;1615259;88;21098;-65
2021/07/04 09:33:24;;;;;;;5.47;2.30;;;;;;;29.02;100.00;98138.09;1624440;85;21488;-64
2021/07/04 09:36:06;;;;;;;7.45;2.22;;;;;;;29.12;100.00;98136.18;1607341;88;21466;-71
2021/07/04 09:38:43;;;;;;;2.45;2.10;;;;;;;29.26;100.00;98136.17;1635353;86;21449;-70
2021/07/04 09:41:12;;;;;;;2.95;2.12;;;;;;;29.39;100.00;98143.49;1636236;86;20910;-69
2021/07/04 09:43:40;;;;;;;23.42;2.10;;;;;;;29.49;100.00;98142.11;1607013;88;21118;-71
2021/07/04 09:46:09;;;;;;;5.08;2.10;;;;;;;29.58;100.00;98142.55;1636796;86;20909;-71
2021/07/04 09:48:51;;;;;;;2.98;2.00;;;;;;;29.67;100.00;98144.34;1607601;88;20880;-69
2021/07/04 09:51:28;;;;;;;2.95;2.05;;;;;;;29.70;97.59;98142.67;1615561;86;21029;-72
2021/07/04 09:53:57;;;;;;;4.75;2.37;;;;;;;29.76;97.88;98135.26;1582484;89;20942;-72
2021/07/04 09:56:32;;;;;;;2.15;1.80;;;;;;;29.87;95.79;98136.92;1611059;87;21552;-72
2021/07/04 09:59:04;;;;;;;5.87;2.15;;;;;;;29.94;97.48;98135.80;1581810;89;21462;-69
2021/07/04 10:01:40;;;;;;;5.08;2.12;;;;;;;30.00;98.62;98137.38;1582442;89;20990;-63
2021/07/04 10:04:26;;;;;;;8.58;2.10;;;;;;;30.03;95.99;98134.89;1610699;87;20997;-68
2021/07/04 10:06:54;;;;;;;2.00;1.90;;;;;;;30.00;94.12;98140.10;1582255;89;20907;-68
2021/07/04 10:09:25;;;;;;;3.12;2.02;;;;;;;29.92;91.49;98138.67;1580570;89;21176;-71
2021/07/04 10:11:52;;;;;;;2.40;2.08;;;;;;;29.80;90.19;98133.59;1610617;87;20961;-68
2021/07/04 10:14:20;;;;;;;2.10;1.65;;;;;;;29.68;89.72;98126.17;1581853;89;21061;-68
2021/07/04 10:16:49;;;;;;;2.10;1.90;;;;;;;29.59;91.68;98133.89;1581938;89;21069;-68
2021/07/04 10:19:26;;;;;;;2.55;1.80;;;;;;;29.51;94.09;98133.80;1582343;89;20939;-68
2021/07/04 10:22:02;;;;;;;1.90;1.80;;;;;;;29.49;98.33;98129.02;1610817;87;21126;-69
2021/07/04 10:24:30;;;;;;;2.40;2.20;;;;;;;29.51;98.63;98114.28;1582617;89;21499;-68
2021/07/04 10:26:59;;;;;;;4.10;1.80;;;;;;;29.59;98.60;98107.56;1610867;87;20941;-74
2021/07/04 10:29:28;;;;;;;2.85;2.15;;;;;;;29.70;99.37;98105.13;1582729;89;20979;-74
2021/07/04 10:32:10;;;;;;;4.62;2.10;;;;;;;29.81;100.00;98109.50;1613925;87;20895;-72
2021/07/04 10:34:46;;;;;;;1.80;1.70;;;;;;;29.93;98.65;98105.54;1623622;87;21931;-74
2021/07/04 10:37:16;;;;;;;2.02;1.80;;;;;;;30.06;96.66;98104.66;1623539;87;20903;-74
2021/07/04 10:39:43;;;;;;;1.80;1.70;;;;;;;30.17;92.66;98095.39;1623559;87;20926;-73
2021/07/04 10:42:11;;;;;;;2.10;1.90;;;;;;;30.26;93.37;98093.09;1623573;87;21474;-74
2021/07/04 10:44:50;;;;;;;1.57;1.47;;;;;;;30.31;91.52;98098.42;1623744;87;20931;-74
2021/07/04 10:47:27;;;;;;;7.83;2.05;;;;;;;30.34;89.26;98092.66;1623684;87;21123;-74
2021/07/04 10:50:13;;;;;;;1.72;1.62;;;;;;;30.42;89.08;98097.31;1623707;87;20955;-73
2021/07/04 10:52:46;;;;;;;2.20;2.00;;;;;;;30.53;87.56;98092.10;1623801;87;20891;-74
2021/07/04 10:55:15;;;;;;;3.60;1.72;;;;;;;30.57;81.79;98093.48;1622946;87;20958;-70
2021/07/04 10:57:55;;;;;;;1.98;1.87;;;;;;;30.61;80.27;98092.19;1612242;87;20947;-71
2021/07/04 11:00:38;;;;;;;1.87;1.77;;;;;;;30.62;82.43;98089.81;1623906;87;21079;-70
2021/07/04 11:03:12;;;;;;;5.60;1.92;;;;;;;30.58;82.17;98081.08;1609038;87;21537;-63
2021/07/04 11:05:41;;;;;;;;;;;;;;;30.52;81.32;98083.59;1620079;87;21450;-69
2021/07/04 11:08:16;;;;;;;2.08;1.87;;;;;;;30.45;82.89;98082.53;1608410;87;20422;-69
2021/07/04 11:11:01;;;;;;;3.35;1.85;;;;;;;30.36;83.87;98085.20;1623701;87;20930;-71
2021/07/04 11:13:33;;;;;;;4.45;1.70;;;;;;;30.33;84.13;98084.16;1608789;87;21124;-69
2021/07/04 11:16:11;;;;;;;;;;;;;;;30.34;84.72;98083.65;1600619;88;21030;-69
2021/07/04 11:18:50;;;;;;;5.22;1.72;;;;;;;30.39;86.06;98085.38;1599644;88;20123;-70
2021/07/04 11:21:22;;;;;;;5.60;1.82;;;;;;;30.47;90.19;98081.86;1599635;87;21447;-70
2021/07/04 11:24:25;;;;;;;2.27;2.02;;;;;;;30.55;89.14;98077.32;1612558;85;20951;-69
2021/07/04 11:27:19;;;;;;;3.22;1.80;;;;;;;30.63;89.02;98085.56;1650492;85;21750;-71
2021/07/04 11:30:25;;;;;;;2.00;1.80;;;;;;;30.69;84.01;98087.64;1593713;88;20926;-69
2021/07/04 11:33:37;;;;;;;2.80;1.75;;;;;;;30.72;84.07;98082.88;1597901;88;20951;-71
2021/07/04 11:36:11;;;;;;;2.00;1.80;;;;;;;30.69;84.22;98089.00;1597959;88;20971;-70
2021/07/04 11:38:48;;;;;;;2.00;1.87;;;;;;;30.66;84.09;98092.05;1598167;88;21398;-69
2021/07/04 11:41:28;;;;;;;3.83;2.05;;;;;;;30.65;84.43;98086.25;1640703;87;21807;-70
2021/07/04 11:44:02;;;;;;;6.55;2.30;;;;;;;30.65;84.47;98081.32;1649587;85;20997;-70